Flight Track Log - Related Links

Times and Time Zones

All times are in EDT time to prevent confusion due to time zone crossing. See the N935SS flight status page for this flight to view local times or setup timezone preferences in your user account.

Time Position Orientation Groundspeed Altitude Reporting Facility
EDT Latitude Longitude Course Direction KTS MPH feet Rate Location/Type
Thu 11:29:37 AM 42.5167 -71.2500 32° Northeast 208 239 2,100  Level KA90
Thu 11:30:37 AM 42.5333 -71.3000 294° West 203 234 2,200 1,000 Climbing KA90
Thu 11:31:37 AM 42.5000 -71.3667 236° Southwest 223 257 4,100 1,600 Climbing KA90
Thu 11:32:37 AM 42.4500 -71.4333 225° Southwest 251 289 5,400 2,400 Climbing KA90
Thu 11:33:37 AM 42.4000 -71.5000 225° Southwest 252 290 8,900 3,176 Climbing KA90
Thu 11:34:02 AM 42.3697 -71.5325 218° Southwest 273 314 9,900 1,465 Climbing Boston Center
Thu 11:35:03 AM 42.3161 -71.6258 232° Southwest 325 374 11,000 2,017 Climbing Boston Center
Thu 11:36:01 AM 42.2878 -71.7442 252° West 325 374 13,900 1,563 Climbing Boston Center
Thu 11:37:02 AM 42.2425 -71.8653 243° Southwest 341 392 14,100 50 Climbing Boston Center
Thu 11:38:02 AM 42.2014 -71.9747 243° Southwest 359 413 14,000 -50 Descending Boston Center
Thu 11:39:03 AM 42.1519 -72.1097 244° Southwest 364 419 14,000  Level Boston Center
Thu 11:40:03 AM 42.1106 -72.2192 243° Southwest 364 419 14,000  Level Boston Center
Thu 11:41:00 AM 42.0628 -72.3533 244° Southwest 364 419 14,000  Level Boston Center
Thu 11:42:01 AM 42.0231 -72.4625 244° Southwest 364 419 14,000  Level Boston Center
Thu 11:43:03 AM 41.9753 -72.5964 244° Southwest 364 419 14,000  Level Boston Center
Thu 11:44:03 AM 41.9311 -72.7081 242° Southwest 364 419 14,000 -356 Level Boston Center
Thu 11:45:01 AM 41.8828 -72.8278 242° Southwest 364 419 13,300 -1,008 Descending Boston Center
Thu 11:46:02 AM 41.8344 -72.9472 242° Southwest 369 425 12,000 -639 Descending Boston Center
Thu 11:47:03 AM 41.7797 -73.0747 240° Southwest 369 425 12,000  Level Boston Center
Thu 11:48:01 AM 41.7311 -73.1939 241° Southwest 369 425 12,000  Level Boston Center
Thu 11:49:01 AM 41.6800 -73.3100 240° Southwest 369 425 12,000 -50 Level Boston Center
Thu 11:50:01 AM 41.6356 -73.4122 240° Southwest 361 415 11,900 -1,033 Descending Boston Center
Thu 11:51:32 AM 41.5667 -73.5667 239° Southwest 282 325 9,400 -1,589 Descending New York TRACON
Thu 11:52:32 AM 41.5333 -73.6500 242° Southwest 264 304 7,900 -1,500 Descending New York TRACON
Thu 11:53:32 AM 41.5000 -73.7333 242° Southwest 252 290 6,400 -1,500 Descending New York TRACON
Thu 11:54:32 AM 41.4667 -73.8167 242° Southwest 248 285 4,900 -1,474 Descending New York TRACON
Thu 11:55:26 AM 41.4167 -73.8667 217° Southwest 244 281 3,600 -950 Descending New York TRACON
Thu 11:56:32 AM 41.3500 -73.8667 180° South 242 278 3,000 -286 Descending New York TRACON
Thu 11:57:32 AM 41.2833 -73.8667 180° South 244 281 3,000 -450 Level New York TRACON
Thu 11:58:32 AM 41.2167 -73.8167 151° Southeast 247 284 2,100 -500 Descending New York TRACON
Thu 11:59:32 AM 41.1833 -73.7833 143° Southeast 161 185 2,000 -100 Descending New York TRACON
Thu 12:00:32 PM 41.1333 -73.7667 166° South 141 162 1,900 -350 Descending New York TRACON
Thu 12:01:32 PM 41.1167 -73.7333 124° Southeast 118 136 1,300 -600 Descending New York TRACON
Thu 12:02:32 PM 41.0833 -73.7167 159° South 121 139 700 -600 Descending New York TRACON
Thu 12:04:00 PM 41.0669 -73.7076 255° West  Level Estimated
Thu 12:11:00 PM 41.0667 -73.7000 255° West  Level FlightAware Approximate
Thu 12:12:00 PM 41.0669 -73.7076 255° West  Level Estimated

Login

Don't have an account? Register now (free) for customized features, flight alerts, and more!